sensor_id;sensor_type;location;lat;lon;timestamp;pressure;altitude;pressure_sealevel;temperature;humidity
8627;BME280;4351;51.422;6.794;2023-02-20T00:01:39;101296.28;;;6.18;100.00
8627;BME280;4351;51.422;6.794;2023-02-20T00:04:13;101292.84;;;6.13;100.00
8627;BME280;4351;51.422;6.794;2023-02-20T00:06:41;101301.75;;;5.84;100.00
8627;BME280;4351;51.422;6.794;2023-02-20T00:09:10;101290.84;;;5.91;100.00
8627;BME280;4351;51.422;6.794;2023-02-20T00:11:38;101290.91;;;5.89;100.00
8627;BME280;4351;51.422;6.794;2023-02-20T00:14:06;101287.25;;;5.92;100.00
8627;BME280;4351;51.422;6.794;2023-02-20T00:16:34;101283.41;;;6.01;100.00
8627;BME280;4351;51.422;6.794;2023-02-20T00:19:02;101279.09;;;5.96;100.00
8627;BME280;4351;51.422;6.794;2023-02-20T00:21:32;101270.41;;;5.88;100.00
8627;BME280;4351;51.422;6.794;2023-02-20T00:24:00;101267.88;;;5.83;100.00
8627;BME280;4351;51.422;6.794;2023-02-20T00:26:28;101275.19;;;5.78;100.00
8627;BME280;4351;51.422;6.794;2023-02-20T00:28:56;101266.56;;;5.68;100.00
8627;BME280;4351;51.422;6.794;2023-02-20T00:31:24;101261.75;;;5.80;100.00
8627;BME280;4351;51.422;6.794;2023-02-20T00:33:52;101263.59;;;5.78;100.00
8627;BME280;4351;51.422;6.794;2023-02-20T00:36:20;101254.53;;;5.82;100.00
8627;BME280;4351;51.422;6.794;2023-02-20T00:38:50;101246.25;;;5.90;100.00
8627;BME280;4351;51.422;6.794;2023-02-20T00:41:18;101238.03;;;5.96;100.00
8627;BME280;4351;51.422;6.794;2023-02-20T00:43:47;101232.66;;;5.96;100.00
8627;BME280;4351;51.422;6.794;2023-02-20T00:46:15;101221.13;;;5.94;100.00
8627;BME280;4351;51.422;6.794;2023-02-20T02:18:10;100973.72;;;6.22;100.00
8627;BME280;4351;51.422;6.794;2023-02-20T02:22:28;100967.06;;;6.08;100.00
8627;BME280;4351;51.422;6.794;2023-02-20T02:38:31;100921.00;;;5.98;100.00
8627;BME280;4351;51.422;6.794;2023-02-20T02:42:06;100922.47;;;6.07;100.00
8627;BME280;4351;51.422;6.794;2023-02-20T12:58:46;100985.06;;;8.22;100.00
8627;BME280;4351;51.422;6.794;2023-02-20T13:01:16;100992.31;;;8.20;100.00
8627;BME280;4351;51.422;6.794;2023-02-20T13:04:09;100971.53;;;8.43;100.00
8627;BME280;4351;51.422;6.794;2023-02-20T13:06:44;100964.84;;;8.32;100.00
8627;BME280;4351;51.422;6.794;2023-02-20T13:09:17;100959.44;;;8.51;100.00
8627;BME280;4351;51.422;6.794;2023-02-20T13:11:49;100951.59;;;8.47;100.00
8627;BME280;4351;51.422;6.794;2023-02-20T13:14:27;100960.34;;;8.33;100.00
8627;BME280;4351;51.422;6.794;2023-02-20T13:17:05;100954.28;;;8.47;100.00
8627;BME280;4351;51.422;6.794;2023-02-20T13:19:38;100947.13;;;8.28;100.00
8627;BME280;4351;51.422;6.794;2023-02-20T13:22:07;100934.28;;;8.15;100.00
8627;BME280;4351;51.422;6.794;2023-02-20T13:24:36;100914.06;;;8.26;100.00
8627;BME280;4351;51.422;6.794;2023-02-20T13:27:06;100916.38;;;8.34;100.00
8627;BME280;4351;51.422;6.794;2023-02-20T13:29:37;100940.13;;;8.43;100.00
8627;BME280;4351;51.422;6.794;2023-02-20T13:32:21;100958.34;;;8.38;100.00
8627;BME280;4351;51.422;6.794;2023-02-20T13:34:51;100953.22;;;8.32;100.00
8627;BME280;4351;51.422;6.794;2023-02-20T13:37:50;100953.81;;;9.30;100.00
8627;BME280;4351;51.422;6.794;2023-02-20T13:40:35;100985.13;;;8.78;100.00
8627;BME280;4351;51.422;6.794;2023-02-20T13:43:28;100974.66;;;8.72;100.00
8627;BME280;4351;51.422;6.794;2023-02-20T13:46:17;100967.03;;;8.62;100.00
8627;BME280;4351;51.422;6.794;2023-02-20T13:48:53;100955.56;;;8.59;100.00
8627;BME280;4351;51.422;6.794;2023-02-20T13:51:35;100957.03;;;8.66;100.00
8627;BME280;4351;51.422;6.794;2023-02-20T13:54:14;100963.91;;;8.72;100.00
8627;BME280;4351;51.422;6.794;2023-02-20T13:56:48;100968.34;;;8.73;100.00
8627;BME280;4351;51.422;6.794;2023-02-20T13:59:19;100972.28;;;8.66;100.00
8627;BME280;4351;51.422;6.794;2023-02-20T14:02:09;100959.19;;;8.77;100.00
8627;BME280;4351;51.422;6.794;2023-02-20T14:04:50;100971.25;;;8.49;100.00
8627;BME280;4351;51.422;6.794;2023-02-20T14:07:29;100970.06;;;8.55;100.00
8627;BME280;4351;51.422;6.794;2023-02-20T14:09:59;100971.97;;;8.72;100.00
8627;BME280;4351;51.422;6.794;2023-02-20T14:12:28;100977.19;;;8.56;100.00
8627;BME280;4351;51.422;6.794;2023-02-20T14:14:56;100951.34;;;8.53;100.00
8627;BME280;4351;51.422;6.794;2023-02-20T14:17:26;100960.19;;;8.55;100.00
8627;BME280;4351;51.422;6.794;2023-02-20T14:19:56;100963.09;;;8.50;100.00
8627;BME280;4351;51.422;6.794;2023-02-20T14:22:38;100965.13;;;8.45;100.00
8627;BME280;4351;51.422;6.794;2023-02-20T14:25:30;100956.53;;;8.56;100.00
8627;BME280;4351;51.422;6.794;2023-02-20T14:28:12;100952.47;;;8.67;100.00
8627;BME280;4351;51.422;6.794;2023-02-20T14:30:41;100948.56;;;8.74;100.00
8627;BME280;4351;51.422;6.794;2023-02-20T14:33:20;100951.78;;;8.63;100.00
8627;BME280;4351;51.422;6.794;2023-02-20T14:36:18;100962.53;;;8.63;100.00
8627;BME280;4351;51.422;6.794;2023-02-20T14:38:58;100955.34;;;8.64;100.00
8627;BME280;4351;51.422;6.794;2023-02-20T14:41:29;100960.28;;;8.73;100.00
8627;BME280;4351;51.422;6.794;2023-02-20T14:43:59;100968.78;;;8.64;100.00
8627;BME280;4351;51.422;6.794;2023-02-20T14:46:28;100965.13;;;8.65;100.00
8627;BME280;4351;51.422;6.794;2023-02-20T14:49:06;100956.50;;;8.77;100.00
8627;BME280;4351;51.422;6.794;2023-02-20T14:51:35;100963.41;;;8.64;100.00
8627;BME280;4351;51.422;6.794;2023-02-20T14:54:17;100949.00;;;8.65;100.00
8627;BME280;4351;51.422;6.794;2023-02-20T14:56:46;100943.03;;;8.77;100.00
8627;BME280;4351;51.422;6.794;2023-02-20T14:59:15;100946.44;;;8.81;100.00
8627;BME280;4351;51.422;6.794;2023-02-20T15:01:43;100960.84;;;8.60;100.00
8627;BME280;4351;51.422;6.794;2023-02-20T15:04:15;100950.28;;;8.57;100.00
8627;BME280;4351;51.422;6.794;2023-02-20T15:06:46;100955.03;;;8.70;100.00
8627;BME280;4351;51.422;6.794;2023-02-20T15:09:16;100951.47;;;8.69;100.00
8627;BME280;4351;51.422;6.794;2023-02-20T15:11:50;100946.84;;;8.73;100.00
8627;BME280;4351;51.422;6.794;2023-02-20T15:14:21;100946.56;;;8.78;100.00
8627;BME280;4351;51.422;6.794;2023-02-20T15:17:05;100941.13;;;8.79;100.00
8627;BME280;4351;51.422;6.794;2023-02-20T15:19:37;100939.13;;;8.65;100.00
8627;BME280;4351;51.422;6.794;2023-02-20T15:22:21;100941.59;;;8.70;100.00
8627;BME280;4351;51.422;6.794;2023-02-20T15:24:49;100939.13;;;8.65;100.00
8627;BME280;4351;51.422;6.794;2023-02-20T15:27:18;100946.25;;;8.66;100.00
8627;BME280;4351;51.422;6.794;2023-02-20T15:30:07;100957.59;;;8.73;100.00
8627;BME280;4351;51.422;6.794;2023-02-20T15:32:36;100960.19;;;8.74;100.00
8627;BME280;4351;51.422;6.794;2023-02-20T15:35:13;100954.63;;;8.97;100.00
8627;BME280;4351;51.422;6.794;2023-02-20T15:37:43;100956.66;;;8.92;100.00
8627;BME280;4351;51.422;6.794;2023-02-20T15:40:19;100949.84;;;8.84;100.00
8627;BME280;4351;51.422;6.794;2023-02-20T15:42:48;100953.00;;;8.75;100.00
8627;BME280;4351;51.422;6.794;2023-02-20T15:45:23;100951.41;;;8.71;100.00
8627;BME280;4351;51.422;6.794;2023-02-20T15:47:51;100956.19;;;8.83;100.00
8627;BME280;4351;51.422;6.794;2023-02-20T15:50:21;100963.22;;;8.86;100.00
8627;BME280;4351;51.422;6.794;2023-02-20T15:52:49;100959.50;;;8.71;100.00
8627;BME280;4351;51.422;6.794;2023-02-20T15:55:19;100946.47;;;8.61;100.00
8627;BME280;4351;51.422;6.794;2023-02-20T15:57:50;100939.56;;;8.75;100.00
8627;BME280;4351;51.422;6.794;2023-02-20T16:00:24;100941.72;;;8.86;100.00
8627;BME280;4351;51.422;6.794;2023-02-20T16:02:53;100948.81;;;8.87;100.00
8627;BME280;4351;51.422;6.794;2023-02-20T16:05:23;100960.03;;;8.78;100.00
8627;BME280;4351;51.422;6.794;2023-02-20T16:07:51;100958.00;;;8.83;100.00
8627;BME280;4351;51.422;6.794;2023-02-20T16:10:20;100961.28;;;8.70;100.00
8627;BME280;4351;51.422;6.794;2023-02-20T16:12:56;100957.72;;;8.70;100.00
8627;BME280;4351;51.422;6.794;2023-02-20T16:15:27;100963.06;;;8.89;100.00
8627;BME280;4351;51.422;6.794;2023-02-20T16:17:55;100960.13;;;8.94;100.00
8627;BME280;4351;51.422;6.794;2023-02-20T16:20:26;100984.31;;;8.76;100.00
8627;BME280;4351;51.422;6.794;2023-02-20T16:22:55;100976.44;;;8.91;100.00
8627;BME280;4351;51.422;6.794;2023-02-20T16:25:24;100984.50;;;8.73;100.00
8627;BME280;4351;51.422;6.794;2023-02-20T16:27:54;100988.31;;;8.67;100.00
8627;BME280;4351;51.422;6.794;2023-02-20T16:30:26;100971.59;;;8.97;100.00
8627;BME280;4351;51.422;6.794;2023-02-20T16:32:59;100990.28;;;8.83;100.00
8627;BME280;4351;51.422;6.794;2023-02-20T16:35:29;100988.81;;;8.95;100.00
8627;BME280;4351;51.422;6.794;2023-02-20T16:37:57;100979.78;;;8.96;100.00
8627;BME280;4351;51.422;6.794;2023-02-20T16:40:25;101212.00;;;8.98;100.00
8627;BME280;4351;51.422;6.794;2023-02-20T16:42:52;101224.53;;;8.78;100.00
8627;BME280;4351;51.422;6.794;2023-02-20T16:45:20;101217.16;;;9.03;100.00
8627;BME280;4351;51.422;6.794;2023-02-20T16:47:50;101220.75;;;8.82;100.00
8627;BME280;4351;51.422;6.794;2023-02-20T16:50:20;101219.44;;;8.93;100.00
8627;BME280;4351;51.422;6.794;2023-02-20T16:52:52;101231.25;;;8.89;100.00
8627;BME280;4351;51.422;6.794;2023-02-20T16:55:22;101239.19;;;8.92;100.00
8627;BME280;4351;51.422;6.794;2023-02-20T16:57:51;101253.53;;;8.92;100.00
8627;BME280;4351;51.422;6.794;2023-02-20T17:00:20;101248.75;;;8.99;100.00
8627;BME280;4351;51.422;6.794;2023-02-20T17:02:50;101255.34;;;8.92;100.00
8627;BME280;4351;51.422;6.794;2023-02-20T17:05:21;101262.84;;;9.04;100.00
8627;BME280;4351;51.422;6.794;2023-02-20T17:07:51;101274.56;;;8.82;100.00
8627;BME280;4351;51.422;6.794;2023-02-20T17:10:19;101261.81;;;8.88;100.00
8627;BME280;4351;51.422;6.794;2023-02-20T17:12:47;101271.09;;;8.80;100.00
8627;BME280;4351;51.422;6.794;2023-02-20T17:15:17;101263.53;;;8.89;100.00
8627;BME280;4351;51.422;6.794;2023-02-20T17:17:45;101279.94;;;9.03;100.00
8627;BME280;4351;51.422;6.794;2023-02-20T17:20:19;101274.16;;;8.92;100.00
8627;BME280;4351;51.422;6.794;2023-02-20T17:22:47;101277.53;;;8.76;100.00
8627;BME280;4351;51.422;6.794;2023-02-20T17:25:32;101290.03;;;8.98;100.00
8627;BME280;4351;51.422;6.794;2023-02-20T17:28:01;101299.13;;;8.95;100.00
8627;BME280;4351;51.422;6.794;2023-02-20T17:30:29;101298.31;;;8.93;100.00
8627;BME280;4351;51.422;6.794;2023-02-20T17:32:57;101303.28;;;9.03;100.00
8627;BME280;4351;51.422;6.794;2023-02-20T17:35:24;101309.41;;;9.06;100.00
8627;BME280;4351;51.422;6.794;2023-02-20T17:37:52;101313.97;;;9.04;100.00
8627;BME280;4351;51.422;6.794;2023-02-20T17:40:20;101314.09;;;8.82;100.00
8627;BME280;4351;51.422;6.794;2023-02-20T17:42:50;101319.91;;;8.92;100.00
8627;BME280;4351;51.422;6.794;2023-02-20T17:45:18;101316.91;;;8.79;100.00
8627;BME280;4351;51.422;6.794;2023-02-20T17:47:46;101309.16;;;8.92;100.00
8627;BME280;4351;51.422;6.794;2023-02-20T17:50:15;101313.72;;;8.90;100.00
8627;BME280;4351;51.422;6.794;2023-02-20T17:52:43;101309.34;;;8.87;100.00
8627;BME280;4351;51.422;6.794;2023-02-20T17:55:15;101318.16;;;8.70;100.00
8627;BME280;4351;51.422;6.794;2023-02-20T17:57:43;101322.88;;;8.85;100.00
8627;BME280;4351;51.422;6.794;2023-02-20T18:00:14;101327.19;;;8.90;100.00
8627;BME280;4351;51.422;6.794;2023-02-20T18:02:43;101327.72;;;9.19;100.00
8627;BME280;4351;51.422;6.794;2023-02-20T18:05:11;101324.41;;;9.12;100.00
8627;BME280;4351;51.422;6.794;2023-02-20T18:07:39;101334.59;;;9.05;100.00
8627;BME280;4351;51.422;6.794;2023-02-20T18:10:07;101341.38;;;8.93;100.00
8627;BME280;4351;51.422;6.794;2023-02-20T18:12:35;101352.59;;;8.82;100.00
8627;BME280;4351;51.422;6.794;2023-02-20T18:15:03;101359.09;;;8.99;100.00
8627;BME280;4351;51.422;6.794;2023-02-20T18:17:32;101359.19;;;8.96;100.00
8627;BME280;4351;51.422;6.794;2023-02-20T18:20:01;101359.47;;;8.90;100.00
8627;BME280;4351;51.422;6.794;2023-02-20T18:22:29;101368.91;;;8.79;100.00
8627;BME280;4351;51.422;6.794;2023-02-20T18:24:57;101358.41;;;8.94;100.00
8627;BME280;4351;51.422;6.794;2023-02-20T18:27:25;101355.03;;;8.89;100.00
8627;BME280;4351;51.422;6.794;2023-02-20T18:29:53;101363.66;;;8.97;100.00
8627;BME280;4351;51.422;6.794;2023-02-20T18:32:22;101346.44;;;9.01;100.00
8627;BME280;4351;51.422;6.794;2023-02-20T18:34:51;101355.78;;;8.92;100.00
8627;BME280;4351;51.422;6.794;2023-02-20T18:37:19;101350.44;;;8.91;100.00
8627;BME280;4351;51.422;6.794;2023-02-20T18:39:47;101352.63;;;9.03;100.00
8627;BME280;4351;51.422;6.794;2023-02-20T18:42:15;101363.22;;;9.06;100.00
8627;BME280;4351;51.422;6.794;2023-02-20T18:44:44;101364.59;;;8.96;100.00
8627;BME280;4351;51.422;6.794;2023-02-20T18:47:12;101367.53;;;9.11;100.00
8627;BME280;4351;51.422;6.794;2023-02-20T18:49:40;101380.94;;;8.91;100.00
8627;BME280;4351;51.422;6.794;2023-02-20T18:52:10;101380.19;;;8.88;100.00
8627;BME280;4351;51.422;6.794;2023-02-20T18:54:38;101370.16;;;8.91;100.00
8627;BME280;4351;51.422;6.794;2023-02-20T18:57:05;101366.59;;;9.12;100.00
8627;BME280;4351;51.422;6.794;2023-02-20T18:59:38;101374.44;;;8.97;100.00
8627;BME280;4351;51.422;6.794;2023-02-20T19:02:08;101375.34;;;8.96;100.00
8627;BME280;4351;51.422;6.794;2023-02-20T19:04:39;101381.94;;;8.89;100.00
8627;BME280;4351;51.422;6.794;2023-02-20T19:07:07;101385.19;;;8.97;100.00
8627;BME280;4351;51.422;6.794;2023-02-20T19:09:36;101384.25;;;9.19;100.00
8627;BME280;4351;51.422;6.794;2023-02-20T19:12:05;101387.97;;;9.36;100.00
8627;BME280;4351;51.422;6.794;2023-02-20T19:14:34;101389.75;;;9.16;100.00
8627;BME280;4351;51.422;6.794;2023-02-20T19:17:03;101392.47;;;8.95;100.00
8627;BME280;4351;51.422;6.794;2023-02-20T19:19:31;101390.34;;;9.02;100.00
8627;BME280;4351;51.422;6.794;2023-02-20T19:22:00;101389.97;;;8.90;100.00
8627;BME280;4351;51.422;6.794;2023-02-20T19:24:28;101394.56;;;8.87;100.00
8627;BME280;4351;51.422;6.794;2023-02-20T19:26:57;101395.72;;;9.02;100.00
8627;BME280;4351;51.422;6.794;2023-02-20T19:29:25;101396.63;;;9.23;100.00
8627;BME280;4351;51.422;6.794;2023-02-20T19:31:53;101388.97;;;8.93;100.00
8627;BME280;4351;51.422;6.794;2023-02-20T19:34:21;101398.16;;;8.87;100.00
8627;BME280;4351;51.422;6.794;2023-02-20T19:36:49;101380.47;;;8.81;100.00
8627;BME280;4351;51.422;6.794;2023-02-20T19:39:19;101379.72;;;9.19;100.00
8627;BME280;4351;51.422;6.794;2023-02-20T19:41:48;101381.25;;;9.04;100.00
8627;BME280;4351;51.422;6.794;2023-02-20T19:44:17;101375.75;;;9.07;100.00
8627;BME280;4351;51.422;6.794;2023-02-20T19:46:51;101388.88;;;9.15;100.00
8627;BME280;4351;51.422;6.794;2023-02-20T19:49:19;101394.06;;;8.99;100.00
8627;BME280;4351;51.422;6.794;2023-02-20T19:51:50;101389.75;;;8.95;100.00
8627;BME280;4351;51.422;6.794;2023-02-20T19:54:20;101380.03;;;8.91;100.00
8627;BME280;4351;51.422;6.794;2023-02-20T19:56:51;101387.00;;;8.96;100.00
8627;BME280;4351;51.422;6.794;2023-02-20T19:59:21;101387.41;;;9.08;100.00
8627;BME280;4351;51.422;6.794;2023-02-20T20:01:51;101392.03;;;9.04;100.00
8627;BME280;4351;51.422;6.794;2023-02-20T20:04:20;101392.78;;;8.87;100.00
8627;BME280;4351;51.422;6.794;2023-02-20T20:06:48;101376.81;;;8.82;100.00
8627;BME280;4351;51.422;6.794;2023-02-20T20:09:18;101384.69;;;8.87;100.00
8627;BME280;4351;51.422;6.794;2023-02-20T20:12:01;101386.81;;;9.01;100.00
8627;BME280;4351;51.422;6.794;2023-02-20T20:14:31;101395.34;;;8.90;100.00
8627;BME280;4351;51.422;6.794;2023-02-20T20:16:59;101388.81;;;8.75;100.00
8627;BME280;4351;51.422;6.794;2023-02-20T20:19:28;101401.94;;;9.04;100.00
8627;BME280;4351;51.422;6.794;2023-02-20T20:21:56;101410.47;;;8.93;100.00
8627;BME280;4351;51.422;6.794;2023-02-20T20:24:24;101401.34;;;8.97;100.00
8627;BME280;4351;51.422;6.794;2023-02-20T20:26:52;101402.91;;;8.80;100.00
8627;BME280;4351;51.422;6.794;2023-02-20T20:29:20;101401.53;;;8.92;100.00
8627;BME280;4351;51.422;6.794;2023-02-20T20:31:49;101402.59;;;8.88;100.00
8627;BME280;4351;51.422;6.794;2023-02-20T20:34:17;101406.84;;;8.94;100.00
8627;BME280;4351;51.422;6.794;2023-02-20T20:36:46;101416.09;;;8.87;100.00
8627;BME280;4351;51.422;6.794;2023-02-20T20:39:14;101407.34;;;9.04;100.00
8627;BME280;4351;51.422;6.794;2023-02-20T20:41:42;101412.72;;;9.04;100.00
8627;BME280;4351;51.422;6.794;2023-02-20T20:44:11;101419.63;;;9.10;100.00
8627;BME280;4351;51.422;6.794;2023-02-20T20:46:39;101411.69;;;9.06;100.00
8627;BME280;4351;51.422;6.794;2023-02-20T20:49:09;101413.56;;;9.04;100.00
8627;BME280;4351;51.422;6.794;2023-02-20T20:51:37;101413.28;;;8.90;100.00
8627;BME280;4351;51.422;6.794;2023-02-20T20:54:05;101426.63;;;8.93;100.00
8627;BME280;4351;51.422;6.794;2023-02-20T20:56:33;101429.06;;;8.99;100.00
8627;BME280;4351;51.422;6.794;2023-02-20T20:59:01;101407.53;;;8.99;100.00
8627;BME280;4351;51.422;6.794;2023-02-20T21:01:30;101408.91;;;8.87;100.00
8627;BME280;4351;51.422;6.794;2023-02-20T21:03:58;101409.88;;;8.86;100.00
8627;BME280;4351;51.422;6.794;2023-02-20T21:06:27;101403.59;;;8.85;100.00
8627;BME280;4351;51.422;6.794;2023-02-20T21:08:55;101404.41;;;8.88;100.00
8627;BME280;4351;51.422;6.794;2023-02-20T21:11:23;101414.00;;;8.72;100.00
8627;BME280;4351;51.422;6.794;2023-02-20T21:13:51;101424.78;;;8.72;100.00
8627;BME280;4351;51.422;6.794;2023-02-20T21:16:19;101413.56;;;8.83;100.00
8627;BME280;4351;51.422;6.794;2023-02-20T21:18:47;101429.97;;;8.98;100.00
8627;BME280;4351;51.422;6.794;2023-02-20T21:21:15;101415.91;;;8.91;100.00
8627;BME280;4351;51.422;6.794;2023-02-20T21:23:44;101419.06;;;8.80;100.00
8627;BME280;4351;51.422;6.794;2023-02-20T21:26:12;101419.75;;;8.85;100.00
8627;BME280;4351;51.422;6.794;2023-02-20T21:28:40;101422.72;;;9.00;100.00
8627;BME280;4351;51.422;6.794;2023-02-20T21:31:08;101418.31;;;8.77;100.00
8627;BME280;4351;51.422;6.794;2023-02-20T21:33:36;101421.63;;;8.83;100.00
8627;BME280;4351;51.422;6.794;2023-02-20T21:36:04;101426.41;;;8.97;100.00
8627;BME280;4351;51.422;6.794;2023-02-20T21:38:32;101423.44;;;8.83;100.00
8627;BME280;4351;51.422;6.794;2023-02-20T21:41:03;101417.22;;;8.60;100.00
8627;BME280;4351;51.422;6.794;2023-02-20T21:43:31;101415.13;;;8.67;100.00
8627;BME280;4351;51.422;6.794;2023-02-20T21:46:17;101420.22;;;8.95;100.00
8627;BME280;4351;51.422;6.794;2023-02-20T21:48:45;101419.75;;;8.85;100.00
8627;BME280;4351;51.422;6.794;2023-02-20T21:51:18;101412.84;;;9.01;100.00
8627;BME280;4351;51.422;6.794;2023-02-20T21:53:46;101424.59;;;8.77;100.00
8627;BME280;4351;51.422;6.794;2023-02-20T21:56:15;101419.84;;;8.61;100.00
8627;BME280;4351;51.422;6.794;2023-02-20T21:58:43;101417.59;;;8.94;100.00
8627;BME280;4351;51.422;6.794;2023-02-20T22:01:33;101417.13;;;8.84;100.00
8627;BME280;4351;51.422;6.794;2023-02-20T22:04:00;101408.19;;;8.83;100.00
8627;BME280;4351;51.422;6.794;2023-02-20T22:06:27;101414.13;;;8.69;100.00
8627;BME280;4351;51.422;6.794;2023-02-20T22:08:54;101418.41;;;8.75;100.00
8627;BME280;4351;51.422;6.794;2023-02-20T22:11:41;101422.28;;;8.68;100.00
8627;BME280;4351;51.422;6.794;2023-02-20T22:14:26;101425.25;;;8.82;100.00
8627;BME280;4351;51.422;6.794;2023-02-20T22:17:12;101424.63;;;8.76;100.00
8627;BME280;4351;51.422;6.794;2023-02-20T22:19:58;101423.00;;;8.71;100.00
8627;BME280;4351;51.422;6.794;2023-02-20T22:22:43;101422.16;;;8.71;100.00
8627;BME280;4351;51.422;6.794;2023-02-20T22:25:29;101417.00;;;8.65;100.00
8627;BME280;4351;51.422;6.794;2023-02-20T22:28:16;101423.09;;;8.91;100.00
8627;BME280;4351;51.422;6.794;2023-02-20T22:31:03;101432.22;;;8.66;100.00
8627;BME280;4351;51.422;6.794;2023-02-20T22:33:49;101426.84;;;8.66;100.00
8627;BME280;4351;51.422;6.794;2023-02-20T22:36:34;101422.59;;;8.60;100.00
8627;BME280;4351;51.422;6.794;2023-02-20T22:39:20;101429.09;;;8.77;100.00
8627;BME280;4351;51.422;6.794;2023-02-20T22:42:05;101430.00;;;8.53;100.00
8627;BME280;4351;51.422;6.794;2023-02-20T22:45:02;101427.09;;;8.59;100.00
8627;BME280;4351;51.422;6.794;2023-02-20T22:47:47;101432.06;;;8.69;100.00
8627;BME280;4351;51.422;6.794;2023-02-20T22:50:33;101437.72;;;8.62;100.00
8627;BME280;4351;51.422;6.794;2023-02-20T22:53:18;101430.09;;;8.74;100.00
8627;BME280;4351;51.422;6.794;2023-02-20T22:56:04;101428.56;;;8.67;100.00
8627;BME280;4351;51.422;6.794;2023-02-20T22:58:49;101431.03;;;8.73;100.00
8627;BME280;4351;51.422;6.794;2023-02-20T23:01:36;101419.78;;;8.63;100.00
8627;BME280;4351;51.422;6.794;2023-02-20T23:04:22;101421.88;;;8.55;100.00
8627;BME280;4351;51.422;6.794;2023-02-20T23:07:07;101433.78;;;8.49;100.00
8627;BME280;4351;51.422;6.794;2023-02-20T23:09:52;101416.91;;;8.68;100.00
8627;BME280;4351;51.422;6.794;2023-02-20T23:12:38;101427.16;;;8.58;100.00
8627;BME280;4351;51.422;6.794;2023-02-20T23:15:26;101426.97;;;8.62;100.00
8627;BME280;4351;51.422;6.794;2023-02-20T23:18:13;101419.13;;;8.56;100.00
8627;BME280;4351;51.422;6.794;2023-02-20T23:20:59;101437.06;;;8.57;100.00
8627;BME280;4351;51.422;6.794;2023-02-20T23:23:46;101439.78;;;8.78;100.00
8627;BME280;4351;51.422;6.794;2023-02-20T23:26:32;101433.47;;;8.79;100.00
8627;BME280;4351;51.422;6.794;2023-02-20T23:29:18;101429.34;;;8.70;100.00
8627;BME280;4351;51.422;6.794;2023-02-20T23:32:04;101437.06;;;8.57;100.00
8627;BME280;4351;51.422;6.794;2023-02-20T23:34:51;101437.41;;;8.70;100.00
8627;BME280;4351;51.422;6.794;2023-02-20T23:37:37;101433.50;;;8.78;100.00
8627;BME280;4351;51.422;6.794;2023-02-20T23:40:23;101439.22;;;8.70;100.00
8627;BME280;4351;51.422;6.794;2023-02-20T23:43:08;101430.59;;;8.61;100.00
8627;BME280;4351;51.422;6.794;2023-02-20T23:45:53;101428.00;;;8.60;100.00
8627;BME280;4351;51.422;6.794;2023-02-20T23:48:39;101416.34;;;8.59;100.00
8627;BME280;4351;51.422;6.794;2023-02-20T23:51:26;101425.63;;;8.50;100.00
8627;BME280;4351;51.422;6.794;2023-02-20T23:54:11;101424.84;;;8.47;100.00
8627;BME280;4351;51.422;6.794;2023-02-20T23:56:57;101443.66;;;8.48;100.00
8627;BME280;4351;51.422;6.794;2023-02-20T23:59:42;101433.28;;;8.61;100.00
